createdAt,value
2019-05-18T00:01:21.226Z,12.93
2019-05-18T00:03:51.231Z,14.53
2019-05-18T00:06:21.238Z,14.50
2019-05-18T00:08:51.700Z,15.63
2019-05-18T00:11:21.797Z,15.83
2019-05-18T00:13:51.914Z,15.20
2019-05-18T00:16:21.844Z,13.50
2019-05-18T00:18:51.985Z,14.30
2019-05-18T00:21:22.094Z,16.00
2019-05-18T00:35:16.791Z,16.90
2019-05-18T00:37:46.783Z,17.43
2019-05-18T00:40:17.588Z,16.63
2019-05-18T00:42:47.599Z,17.60
2019-05-18T00:51:39.481Z,17.47
2019-05-18T00:54:09.646Z,18.00
2019-05-18T01:03:22.258Z,19.40
2019-05-18T01:05:52.232Z,19.13
2019-05-18T01:08:22.332Z,21.30
2019-05-18T01:10:52.336Z,20.60
2019-05-18T01:13:22.320Z,22.03
2019-05-18T01:29:14.076Z,20.27
2019-05-18T01:31:44.132Z,22.30
2019-05-18T01:34:14.246Z,22.60
2019-05-18T01:36:44.268Z,24.50
2019-05-18T01:39:14.253Z,21.17
2019-05-18T01:41:44.731Z,21.63
2019-05-18T01:44:14.795Z,23.20
2019-05-18T01:50:35.503Z,23.83
2019-05-18T01:53:05.586Z,23.83
2019-05-18T01:55:35.623Z,25.30
2019-05-18T01:58:05.604Z,26.17
2019-05-18T02:00:35.614Z,24.10
2019-05-18T02:06:57.237Z,24.90
2019-05-18T02:09:27.999Z,23.77
2019-05-18T02:11:57.935Z,24.37
2019-05-18T02:14:27.982Z,26.40
2019-05-18T02:16:57.975Z,24.00
2019-05-18T02:19:28.081Z,22.93
2019-05-18T02:21:58.040Z,25.77
2019-05-18T02:28:18.582Z,28.10
2019-05-18T02:30:48.584Z,25.53
2019-05-18T02:37:09.138Z,23.33
2019-05-18T02:39:39.149Z,25.40
2019-05-18T02:42:09.470Z,25.53
2019-05-18T02:44:39.532Z,26.10
2019-05-18T02:47:09.573Z,24.77
2019-05-18T03:08:45.047Z,28.40
2019-05-18T03:11:14.941Z,31.40
2019-05-18T03:42:38.412Z,41.10
2019-05-18T03:45:09.637Z,43.03
2019-05-18T03:47:39.614Z,38.83
2019-05-18T03:50:10.649Z,40.10
2019-05-18T03:52:40.607Z,35.03
2019-05-18T03:59:01.706Z,40.20
2019-05-18T04:16:28.035Z,40.37
2019-05-18T04:18:57.933Z,37.77
2019-05-18T04:25:19.897Z,32.57
2019-05-18T04:35:03.465Z,29.40
2019-05-18T04:37:33.694Z,30.20
2019-05-18T04:40:03.751Z,23.83
2019-05-18T04:46:18.685Z,21.73
2019-05-18T05:30:28.368Z,17.87
2019-05-18T05:48:01.907Z,12.90
2019-05-18T05:50:36.201Z,12.17
2019-05-18T05:53:03.505Z,13.50
2019-05-18T05:55:33.422Z,15.00
2019-05-18T06:01:54.663Z,13.20
2019-05-18T06:04:24.746Z,13.53
2019-05-18T06:06:54.668Z,12.47
2019-05-18T06:09:24.615Z,12.83
2019-05-18T06:22:50.516Z,13.10
2019-05-18T06:51:43.898Z,10.93
2019-05-18T07:09:14.166Z,11.37
2019-05-18T07:21:21.773Z,12.50
2019-05-18T07:59:59.433Z,8.90
2019-05-18T08:02:29.742Z,9.67
2019-05-18T08:04:59.756Z,10.17
2019-05-18T08:07:29.649Z,8.83
2019-05-18T08:23:28.747Z,12.00
2019-05-18T08:25:59.475Z,10.30
2019-05-18T08:28:29.475Z,11.50
2019-05-18T08:30:59.521Z,9.47
2019-05-18T08:33:30.232Z,9.70
2019-05-18T08:36:00.270Z,11.07
2019-05-18T08:38:30.162Z,10.50
2019-05-18T08:41:00.170Z,10.97
2019-05-18T08:43:30.711Z,10.30
2019-05-18T09:22:23.584Z,10.67
2019-05-18T09:24:53.645Z,9.77
2019-05-18T09:27:23.920Z,10.43
2019-05-18T09:52:09.350Z,10.33
2019-05-18T09:54:39.281Z,10.27
2019-05-18T09:57:09.259Z,11.30
2019-05-18T09:59:39.184Z,10.60
2019-05-18T10:02:09.584Z,11.30
2019-05-18T10:04:39.526Z,9.93
2019-05-18T10:07:09.683Z,11.70
2019-05-18T10:09:39.924Z,11.00
2019-05-18T10:15:26.029Z,10.73
2019-05-18T10:17:55.995Z,11.57
2019-05-18T10:20:26.119Z,11.40
2019-05-18T10:23:11.830Z,9.80
2019-05-18T10:29:19.865Z,12.03
2019-05-18T10:31:49.879Z,9.60
2019-05-18T10:34:19.758Z,8.20
2019-05-18T11:03:34.178Z,8.20
2019-05-18T11:06:04.520Z,7.40
2019-05-18T11:35:31.551Z,8.57
2019-05-18T12:00:33.556Z,8.10
2019-05-18T12:03:03.587Z,6.53
2019-05-18T12:05:33.486Z,6.87
2019-05-18T12:08:03.528Z,6.10
2019-05-18T12:10:33.430Z,7.20
2019-05-18T12:13:03.367Z,6.63
2019-05-18T12:15:33.463Z,7.40
2019-05-18T12:21:55.107Z,5.70
2019-05-18T12:24:24.988Z,5.83
2019-05-18T12:26:55.197Z,6.70
2019-05-18T12:29:25.114Z,7.00
2019-05-18T12:31:55.004Z,6.80
2019-05-18T12:34:24.978Z,8.23
2019-05-18T12:36:54.928Z,8.10
2019-05-18T12:39:24.857Z,7.50
2019-05-18T12:41:54.762Z,6.67
2019-05-18T12:44:24.661Z,7.10
2019-05-18T12:46:54.643Z,7.00
2019-05-18T12:49:24.568Z,7.40
2019-05-18T12:51:54.847Z,7.70
2019-05-18T12:54:30.894Z,7.50
2019-05-18T12:56:56.478Z,7.40
2019-05-18T12:59:26.559Z,7.77
2019-05-18T13:01:57.163Z,6.30
2019-05-18T13:04:27.082Z,7.00
2019-05-18T13:06:56.985Z,5.70
2019-05-18T13:09:26.981Z,7.63
2019-05-18T13:11:56.878Z,7.10
2019-05-18T13:14:27.319Z,6.63
2019-05-18T13:16:57.237Z,7.47
2019-05-18T13:19:27.271Z,4.50
2019-05-18T13:21:57.443Z,4.73
2019-05-18T13:24:27.544Z,4.80
2019-05-18T13:26:57.562Z,4.63
2019-05-18T13:29:27.635Z,4.37
2019-05-18T13:31:57.537Z,4.97
2019-05-18T13:34:27.469Z,4.47
2019-05-18T13:36:57.374Z,7.00
2019-05-18T13:39:27.660Z,5.43
2019-05-18T13:41:57.674Z,6.13
2019-05-18T13:44:27.637Z,5.50
2019-05-18T13:46:57.940Z,5.00
2019-05-18T13:49:27.888Z,4.73
2019-05-18T13:51:57.912Z,3.93
2019-05-18T13:54:28.027Z,5.27
2019-05-18T13:56:58.251Z,3.50
2019-05-18T13:59:29.164Z,6.50
2019-05-18T14:01:59.196Z,4.80
2019-05-18T14:23:37.189Z,5.00
2019-05-18T14:33:26.447Z,3.00
2019-05-18T14:43:16.236Z,4.30
2019-05-18T14:45:49.233Z,5.17
2019-05-18T14:48:18.325Z,6.50
2019-05-18T14:50:48.344Z,6.10
2019-05-18T14:53:18.848Z,6.67
2019-05-18T14:55:49.108Z,5.43
2019-05-18T14:58:19.218Z,5.63
2019-05-18T15:00:49.833Z,5.33
2019-05-18T15:03:19.811Z,5.77
2019-05-18T15:05:49.763Z,8.30
2019-05-18T15:08:19.753Z,5.43
2019-05-18T15:10:49.842Z,6.23
2019-05-18T15:13:20.313Z,5.70
2019-05-18T15:15:50.390Z,6.80
2019-05-18T15:22:11.640Z,6.53
2019-05-18T15:24:41.709Z,6.80
2019-05-18T16:03:32.059Z,6.70
2019-05-18T16:46:24.514Z,6.90
2019-05-18T16:48:54.401Z,6.53
2019-05-18T16:51:24.391Z,8.53
2019-05-18T16:53:54.304Z,7.50
2019-05-18T16:56:34.616Z,6.70
2019-05-18T16:58:55.983Z,6.80
2019-05-18T17:01:26.785Z,10.10
2019-05-18T17:03:56.759Z,8.57
2019-05-18T17:06:26.757Z,7.17
2019-05-18T17:12:41.786Z,8.73
2019-05-18T17:37:48.062Z,4.97
2019-05-18T17:40:18.192Z,5.30
2019-05-18T17:42:48.121Z,6.40
2019-05-18T17:45:18.358Z,6.50
2019-05-18T17:47:48.461Z,7.10
2019-05-18T17:50:18.573Z,6.90
2019-05-18T17:52:49.416Z,6.17
2019-05-18T17:55:19.584Z,6.67
2019-05-18T17:57:49.567Z,9.27
2019-05-18T18:11:48.161Z,6.50
2019-05-18T18:14:18.354Z,7.13
2019-05-18T18:16:48.255Z,8.60
2019-05-18T18:19:18.743Z,8.40
2019-05-18T18:25:43.025Z,8.43
2019-05-18T18:28:13.240Z,8.40
2019-05-18T18:30:43.236Z,9.00
2019-05-18T18:33:13.365Z,9.63
2019-05-18T18:35:43.372Z,9.50
2019-05-18T18:38:13.435Z,12.10
2019-05-18T18:40:43.935Z,14.87
2019-05-18T18:43:14.891Z,10.57
2019-05-18T18:49:48.428Z,10.47
2019-05-18T18:52:18.515Z,9.83
2019-05-18T18:54:48.864Z,8.50
2019-05-18T18:57:18.783Z,8.77
2019-05-18T18:59:49.228Z,8.20
2019-05-18T19:02:19.166Z,8.70
2019-05-18T19:04:49.216Z,7.70
2019-05-18T19:07:19.051Z,8.57
2019-05-18T19:09:49.060Z,8.57
2019-05-18T19:12:19.531Z,10.07
2019-05-18T19:14:49.829Z,8.50
2019-05-18T19:17:20.037Z,8.80
2019-05-18T19:19:50.273Z,9.50
2019-05-18T19:22:20.247Z,10.10
2019-05-18T19:24:50.270Z,9.30
2019-05-18T19:27:20.899Z,9.60
2019-05-18T19:29:50.863Z,9.83
2019-05-18T19:32:21.052Z,11.43
2019-05-18T19:34:51.479Z,12.33
2019-05-18T19:52:40.451Z,10.70
2019-05-18T19:55:10.738Z,14.50
2019-05-18T19:57:40.584Z,10.70
2019-05-18T20:00:11.692Z,8.47
2019-05-18T20:02:41.682Z,8.87
2019-05-18T20:05:12.725Z,9.07
2019-05-18T20:07:42.753Z,8.83
2019-05-18T20:10:14.877Z,8.00
2019-05-18T20:12:44.851Z,7.97
2019-05-18T20:15:15.417Z,8.60
2019-05-18T20:17:45.368Z,8.40
2019-05-18T20:20:15.811Z,10.57
2019-05-18T20:29:05.886Z,9.23
2019-05-18T20:31:36.034Z,8.53
2019-05-18T20:34:05.934Z,9.47
2019-05-18T20:36:37.088Z,8.13
2019-05-18T20:39:07.753Z,8.77
2019-05-18T20:41:37.871Z,8.23
2019-05-18T20:44:07.989Z,8.03
2019-05-18T20:46:38.777Z,8.30
2019-05-18T20:49:08.758Z,7.70
2019-05-18T21:03:08.494Z,11.07
2019-05-18T21:05:38.523Z,10.93
2019-05-18T21:08:08.541Z,10.60
2019-05-18T21:10:38.657Z,10.33
2019-05-18T21:13:08.688Z,11.00
2019-05-18T21:15:38.633Z,11.47
2019-05-18T21:22:00.174Z,8.80
2019-05-18T21:24:30.358Z,7.23
2019-05-18T21:27:00.327Z,8.03
2019-05-18T21:29:30.241Z,7.67
2019-05-18T21:32:00.193Z,7.03
2019-05-18T21:34:30.106Z,6.43
2019-05-18T21:40:50.947Z,6.17
2019-05-18T21:43:20.955Z,6.17
2019-05-18T21:45:50.876Z,6.73
2019-05-18T21:48:20.795Z,6.90
2019-05-18T21:50:50.727Z,9.57
2019-05-18T21:53:20.988Z,7.10
2019-05-18T21:55:50.899Z,7.30
2019-05-18T21:58:20.825Z,8.30
2019-05-18T22:00:51.141Z,6.80
2019-05-18T22:03:21.554Z,8.47
2019-05-18T22:05:51.570Z,8.10
2019-05-18T22:21:49.710Z,10.63
2019-05-18T22:24:20.090Z,11.10
2019-05-18T22:26:52.408Z,9.70
2019-05-18T22:29:22.494Z,8.30
2019-05-18T22:31:52.583Z,9.00
2019-05-18T22:38:07.646Z,11.33
2019-05-18T22:40:37.573Z,10.07
2019-05-18T22:43:07.562Z,11.33
2019-05-18T22:49:28.363Z,11.50
2019-05-18T22:51:58.327Z,8.17
2019-05-18T22:54:28.223Z,9.80
2019-05-18T22:56:58.199Z,8.60
2019-05-18T23:03:13.153Z,8.27
2019-05-18T23:24:53.388Z,8.70
2019-05-18T23:37:01.039Z,9.97
2019-05-18T23:39:30.938Z,10.17
